createdAt,value
2022-09-16T00:01:22.007Z,11.89
2022-09-16T00:04:27.632Z,11.74
2022-09-16T00:07:33.966Z,11.43
2022-09-16T00:10:40.617Z,10.79
2022-09-16T00:13:49.743Z,10.87
2022-09-16T00:16:55.978Z,11.18
2022-09-16T00:20:02.386Z,10.83
2022-09-16T00:23:09.554Z,10.67
2022-09-16T00:26:15.228Z,10.34
2022-09-16T00:29:26.119Z,10.14
2022-09-16T00:32:31.823Z,10.05
2022-09-16T00:35:37.572Z,10.04
2022-09-16T00:38:44.278Z,9.72
2022-09-16T00:41:52.143Z,10.11
2022-09-16T00:45:05.189Z,10.26
2022-09-16T00:48:18.547Z,10.58
2022-09-16T00:51:26.495Z,10.96
2022-09-16T00:54:36.999Z,11.05
2022-09-16T00:57:45.171Z,11.10
2022-09-16T01:00:54.505Z,10.86
2022-09-16T01:04:06.472Z,10.70
2022-09-16T01:07:12.495Z,11.25
2022-09-16T01:10:24.258Z,12.92
2022-09-16T01:13:29.979Z,13.87
2022-09-16T01:16:48.102Z,13.92
2022-09-16T01:20:35.690Z,14.42
2022-09-16T01:24:22.001Z,13.57
2022-09-16T01:28:22.363Z,13.77
2022-09-16T01:31:43.887Z,12.50
2022-09-16T01:35:05.065Z,11.87
2022-09-16T01:38:40.908Z,10.75
2022-09-16T01:42:25.639Z,10.37
2022-09-16T01:45:45.900Z,10.36
2022-09-16T01:49:06.239Z,10.13
2022-09-16T01:52:26.735Z,9.23
2022-09-16T01:55:41.986Z,8.84
2022-09-16T01:59:05.932Z,8.43
2022-09-16T02:02:24.396Z,8.40
2022-09-16T02:05:42.209Z,8.10
2022-09-16T02:08:59.985Z,8.07
2022-09-16T02:12:15.897Z,7.67
2022-09-16T02:15:29.499Z,8.46
2022-09-16T02:18:43.918Z,11.06
2022-09-16T02:21:57.092Z,10.98
2022-09-16T02:25:11.780Z,9.54
2022-09-16T02:28:40.664Z,9.47
2022-09-16T02:31:54.969Z,9.30
2022-09-16T02:35:06.564Z,9.12
2022-09-16T02:38:21.905Z,9.19
2022-09-16T02:41:27.757Z,8.87
2022-09-16T02:44:34.503Z,9.34
2022-09-16T02:48:03.184Z,8.99
2022-09-16T02:51:26.442Z,9.87
2022-09-16T02:54:50.713Z,10.25
2022-09-16T02:57:56.769Z,9.70
2022-09-16T03:01:03.647Z,9.79
2022-09-16T03:04:09.215Z,10.03
2022-09-16T03:07:19.202Z,10.39
2022-09-16T03:10:36.378Z,11.15
2022-09-16T03:14:02.690Z,11.94
2022-09-16T03:17:33.093Z,12.64
2022-09-16T03:20:54.949Z,11.72
2022-09-16T03:24:18.808Z,11.53
2022-09-16T03:27:38.982Z,10.15
2022-09-16T03:30:58.814Z,8.35
2022-09-16T03:34:16.904Z,7.34
2022-09-16T03:37:26.772Z,6.80
2022-09-16T03:40:36.556Z,6.27
2022-09-16T03:43:58.153Z,6.27
2022-09-16T03:47:11.657Z,6.23
2022-09-16T03:50:18.176Z,6.43
2022-09-16T03:53:23.660Z,6.41
2022-09-16T03:56:29.240Z,7.73
2022-09-16T03:59:37.328Z,8.21
2022-09-16T04:02:42.825Z,8.90
2022-09-16T04:05:50.621Z,8.86
2022-09-16T04:08:59.453Z,9.11
2022-09-16T04:12:12.462Z,9.44
2022-09-16T04:15:22.845Z,9.53
2022-09-16T04:18:29.050Z,9.60
2022-09-16T04:21:34.590Z,9.31
2022-09-16T04:24:40.202Z,9.24
2022-09-16T04:27:48.084Z,9.22
2022-09-16T04:31:04.903Z,9.71
2022-09-16T04:34:12.071Z,9.87
2022-09-16T04:37:17.721Z,9.35
2022-09-16T04:40:23.489Z,8.71
2022-09-16T04:43:29.088Z,9.09
2022-09-16T04:46:37.480Z,9.79
2022-09-16T04:49:48.037Z,11.36
2022-09-16T04:52:53.792Z,15.81
2022-09-16T04:56:10.420Z,18.50
2022-09-16T04:59:16.041Z,15.74
2022-09-16T05:02:24.270Z,11.91
2022-09-16T05:05:29.855Z,11.86
2022-09-16T05:08:36.122Z,13.12
2022-09-16T05:11:44.483Z,13.62
2022-09-16T05:14:51.800Z,13.82
2022-09-16T05:18:00.658Z,13.32
2022-09-16T05:21:10.648Z,13.28
2022-09-16T05:24:17.870Z,13.81
2022-09-16T05:27:23.474Z,14.73
2022-09-16T05:30:29.104Z,17.19
2022-09-16T05:33:37.313Z,18.15
2022-09-16T05:36:44.054Z,17.68
2022-09-16T05:39:49.664Z,16.81
2022-09-16T05:42:55.564Z,15.11
2022-09-16T05:46:02.467Z,15.74
2022-09-16T05:49:10.902Z,15.41
2022-09-16T05:52:16.706Z,15.65
2022-09-16T05:55:22.894Z,14.56
2022-09-16T05:58:31.608Z,14.76
2022-09-16T06:01:39.367Z,14.95
2022-09-16T06:04:47.902Z,15.28
2022-09-16T06:07:53.589Z,14.50
2022-09-16T06:10:59.598Z,13.81
2022-09-16T06:14:06.247Z,13.68
2022-09-16T06:17:11.880Z,13.59
2022-09-16T06:20:20.790Z,13.71
2022-09-16T06:23:28.226Z,13.74
2022-09-16T06:26:48.589Z,15.29
2022-09-16T06:29:55.560Z,15.99
2022-09-16T06:33:03.091Z,16.48
2022-09-16T06:36:15.581Z,15.48
2022-09-16T06:39:23.249Z,15.58
2022-09-16T06:42:29.018Z,16.07
2022-09-16T06:45:42.160Z,15.92
2022-09-16T06:48:52.309Z,15.53
2022-09-16T06:52:05.660Z,16.83
2022-09-16T06:55:12.317Z,16.75
2022-09-16T06:58:20.407Z,16.95
2022-09-16T07:01:29.092Z,16.26
2022-09-16T07:04:38.607Z,15.24
2022-09-16T07:07:46.916Z,14.94
2022-09-16T07:11:06.978Z,13.77
2022-09-16T07:14:12.866Z,13.66
2022-09-16T07:17:18.434Z,13.69
2022-09-16T07:20:24.379Z,13.92
2022-09-16T07:23:39.865Z,13.12
2022-09-16T07:26:49.240Z,12.78
2022-09-16T07:29:54.892Z,12.52
2022-09-16T07:33:00.690Z,12.58
2022-09-16T07:36:09.060Z,12.96
2022-09-16T07:39:21.621Z,13.85
2022-09-16T07:42:27.336Z,13.37
2022-09-16T07:45:32.915Z,12.67
2022-09-16T07:48:42.242Z,12.99
2022-09-16T07:51:51.470Z,12.74
2022-09-16T07:54:59.753Z,11.78
2022-09-16T07:58:06.478Z,11.17
2022-09-16T08:01:12.645Z,10.62
2022-09-16T08:04:19.558Z,10.87
2022-09-16T08:07:25.161Z,9.84
2022-09-16T08:10:39.859Z,9.80
2022-09-16T08:13:46.717Z,9.01
2022-09-16T08:16:54.338Z,9.32
2022-09-16T08:20:09.250Z,8.42
2022-09-16T08:23:15.870Z,8.81
2022-09-16T08:26:25.352Z,8.99
2022-09-16T08:29:30.979Z,9.09
2022-09-16T08:32:36.659Z,8.53
2022-09-16T08:35:44.859Z,8.66
2022-09-16T08:38:55.991Z,8.49
2022-09-16T08:42:37.998Z,8.45
2022-09-16T08:45:57.341Z,8.40
2022-09-16T08:49:18.966Z,9.06
2022-09-16T08:52:46.682Z,8.32
2022-09-16T08:55:55.095Z,7.76
2022-09-16T08:59:10.527Z,6.49
2022-09-16T09:06:28.664Z,7.37
2022-09-16T09:09:56.898Z,7.31
2022-09-16T09:13:33.364Z,7.44
2022-09-16T09:16:56.658Z,7.21
2022-09-16T09:20:25.474Z,6.87
2022-09-16T09:23:56.027Z,7.39
2022-09-16T09:27:23.071Z,6.79
2022-09-16T09:30:31.801Z,5.99
2022-09-16T09:33:55.450Z,6.23
2022-09-16T09:37:24.551Z,6.62
2022-09-16T09:40:46.272Z,6.32
2022-09-16T09:44:05.332Z,5.92
2022-09-16T09:47:22.440Z,5.85
2022-09-16T09:50:40.452Z,5.97
2022-09-16T09:53:55.926Z,6.21
2022-09-16T09:57:09.090Z,6.46
2022-09-16T10:00:22.365Z,6.42
2022-09-16T10:03:32.777Z,6.60
2022-09-16T10:06:42.276Z,6.82
2022-09-16T10:09:57.382Z,6.49
2022-09-16T10:13:11.953Z,6.27
2022-09-16T10:16:22.008Z,6.36
2022-09-16T10:19:37.145Z,6.61
2022-09-16T10:23:06.546Z,6.78
2022-09-16T10:26:26.115Z,6.55
2022-09-16T10:29:32.677Z,6.50
2022-09-16T10:32:52.949Z,6.89
2022-09-16T10:36:04.069Z,7.38
2022-09-16T10:39:29.080Z,7.08
2022-09-16T10:42:35.087Z,7.40
2022-09-16T10:45:52.078Z,8.36
2022-09-16T10:49:12.560Z,6.89
2022-09-16T10:52:21.060Z,7.06
2022-09-16T10:55:38.942Z,6.96
2022-09-16T10:58:44.786Z,7.49
2022-09-16T11:02:09.942Z,7.97
2022-09-16T11:05:33.240Z,7.64
2022-09-16T11:09:01.162Z,7.23
2022-09-16T11:13:04.323Z,6.50
2022-09-16T11:16:34.269Z,6.85
2022-09-16T11:20:03.935Z,7.06
2022-09-16T11:23:33.168Z,7.32
2022-09-16T11:26:55.704Z,7.32
2022-09-16T11:30:14.540Z,7.79
2022-09-16T11:33:36.294Z,8.22
2022-09-16T11:37:05.232Z,8.44
2022-09-16T11:40:37.401Z,8.27
2022-09-16T11:44:16.109Z,7.53
2022-09-16T11:47:51.587Z,7.42
2022-09-16T11:51:18.168Z,6.52
2022-09-16T11:54:51.893Z,5.52
2022-09-16T11:58:05.545Z,6.13
2022-09-16T12:01:31.454Z,6.04
2022-09-16T12:04:51.235Z,5.77
2022-09-16T12:08:09.730Z,5.46
2022-09-16T12:11:33.305Z,5.33
2022-09-16T12:14:46.795Z,4.49
2022-09-16T12:18:02.344Z,5.03
2022-09-16T12:21:19.974Z,5.38
2022-09-16T12:24:38.509Z,6.44
2022-09-16T12:27:55.231Z,5.77
2022-09-16T12:31:19.567Z,5.88
2022-09-16T12:34:36.101Z,6.55
2022-09-16T12:37:54.112Z,6.58
2022-09-16T12:41:36.503Z,6.89
2022-09-16T12:45:26.480Z,6.22
2022-09-16T12:49:22.594Z,6.14
2022-09-16T12:53:29.926Z,7.01
2022-09-16T12:57:06.969Z,7.46
2022-09-16T13:00:27.548Z,7.37
2022-09-16T13:03:40.466Z,7.60
2022-09-16T13:06:53.067Z,8.30
2022-09-16T13:10:26.427Z,8.81
2022-09-16T13:13:49.079Z,8.27
2022-09-16T13:17:00.722Z,6.26
2022-09-16T13:20:20.106Z,6.31
2022-09-16T13:23:34.236Z,6.58
2022-09-16T13:26:48.468Z,7.81
2022-09-16T13:29:54.096Z,6.97
2022-09-16T13:33:29.600Z,7.66
2022-09-16T13:36:37.187Z,7.41
2022-09-16T13:39:45.213Z,6.55
2022-09-16T13:43:16.023Z,5.81
2022-09-16T13:46:36.815Z,5.84
2022-09-16T13:49:51.107Z,5.94
2022-09-16T13:52:59.161Z,6.09
2022-09-16T13:56:30.837Z,6.84
2022-09-16T14:00:11.719Z,6.77
2022-09-16T14:03:45.886Z,6.33
2022-09-16T14:07:22.862Z,5.79
2022-09-16T14:10:50.655Z,5.75
2022-09-16T14:14:06.270Z,5.71
2022-09-16T14:17:27.857Z,5.93
2022-09-16T14:20:36.372Z,5.50
2022-09-16T14:23:41.950Z,5.49
2022-09-16T14:26:55.311Z,6.09
2022-09-16T14:30:03.795Z,6.32
2022-09-16T14:33:13.350Z,6.62
2022-09-16T14:36:26.283Z,7.01
2022-09-16T14:39:36.319Z,5.67
2022-09-16T14:42:55.011Z,5.46
2022-09-16T14:46:05.187Z,5.52
2022-09-16T14:49:18.577Z,5.49
2022-09-16T14:52:31.334Z,5.32
2022-09-16T14:55:40.414Z,5.54
2022-09-16T14:58:46.379Z,6.52
2022-09-16T15:01:52.719Z,6.26
2022-09-16T15:05:13.823Z,6.17
2022-09-16T15:08:27.731Z,6.22
2022-09-16T15:11:48.727Z,5.97
2022-09-16T15:14:55.699Z,5.81
2022-09-16T15:18:08.050Z,5.65
2022-09-16T15:21:24.985Z,5.65
2022-09-16T15:24:36.841Z,5.75
2022-09-16T15:27:42.469Z,5.60
2022-09-16T15:30:51.654Z,7.68
2022-09-16T15:33:58.825Z,11.37
2022-09-16T15:37:07.038Z,10.95
2022-09-16T15:40:36.310Z,13.15
2022-09-16T15:43:46.825Z,8.97
2022-09-16T15:46:53.644Z,11.03
2022-09-16T15:50:08.803Z,11.43
2022-09-16T15:53:25.496Z,10.66
2022-09-16T15:56:44.612Z,16.00
2022-09-16T16:00:10.247Z,14.25
2022-09-16T16:03:23.904Z,11.81
2022-09-16T16:06:49.448Z,10.51
2022-09-16T16:09:57.802Z,11.09
2022-09-16T16:13:06.601Z,11.72
2022-09-16T16:16:14.978Z,11.94
2022-09-16T16:19:22.251Z,12.33
2022-09-16T16:22:29.872Z,11.50
2022-09-16T16:25:38.533Z,12.23
2022-09-16T16:28:44.118Z,13.15
2022-09-16T16:32:10.734Z,13.51
2022-09-16T16:35:16.717Z,13.80
2022-09-16T16:38:22.219Z,15.58
2022-09-16T16:41:30.519Z,17.57
2022-09-16T16:44:36.608Z,18.16
2022-09-16T16:47:42.393Z,20.16
2022-09-16T16:50:57.133Z,19.79
2022-09-16T16:54:03.697Z,18.76
2022-09-16T16:57:12.004Z,16.39
2022-09-16T17:00:19.668Z,12.85
2022-09-16T17:03:25.413Z,11.19
2022-09-16T17:06:31.255Z,11.33
2022-09-16T17:09:36.767Z,10.69
2022-09-16T17:12:44.890Z,11.85
2022-09-16T17:15:50.507Z,12.55
2022-09-16T17:18:56.822Z,14.63
2022-09-16T17:22:02.436Z,15.22
2022-09-16T17:25:09.265Z,16.50
2022-09-16T17:28:19.450Z,18.34
2022-09-16T17:31:29.786Z,18.27
2022-09-16T17:34:36.499Z,18.62
2022-09-16T17:37:42.032Z,25.29
2022-09-16T17:40:47.521Z,29.38
2022-09-16T17:43:56.290Z,29.23
2022-09-16T17:47:02.413Z,28.14
2022-09-16T17:50:09.519Z,24.49
2022-09-16T17:53:15.027Z,24.01
2022-09-16T17:56:20.634Z,23.10
2022-09-16T17:59:28.879Z,21.50
2022-09-16T18:02:34.541Z,21.34
2022-09-16T18:05:42.009Z,20.15
2022-09-16T18:08:49.147Z,18.79
2022-09-16T18:11:54.793Z,17.34
2022-09-16T18:15:02.988Z,18.27
2022-09-16T18:18:08.883Z,17.83
2022-09-16T18:21:18.475Z,22.25
2022-09-16T18:24:24.017Z,19.67
2022-09-16T18:27:29.597Z,16.93
2022-09-16T18:30:38.071Z,14.40
2022-09-16T18:33:44.739Z,13.75
2022-09-16T18:36:50.274Z,14.45
2022-09-16T18:39:55.812Z,13.01
2022-09-16T18:43:02.433Z,13.35
2022-09-16T18:46:24.147Z,15.52
2022-09-16T18:49:32.196Z,16.33
2022-09-16T18:52:38.240Z,16.60
2022-09-16T18:55:44.165Z,16.46
2022-09-16T18:59:09.937Z,16.22
2022-09-16T19:02:19.290Z,16.44
2022-09-16T19:05:25.161Z,17.69
2022-09-16T19:08:31.287Z,14.76
2022-09-16T19:11:38.942Z,15.43
2022-09-16T19:14:45.160Z,16.26
2022-09-16T19:17:53.446Z,18.47
2022-09-16T19:20:59.527Z,19.56
2022-09-16T19:24:10.923Z,19.09
2022-09-16T19:27:18.716Z,18.04
2022-09-16T19:30:26.582Z,17.28
2022-09-16T19:33:35.502Z,19.67
2022-09-16T19:36:42.513Z,19.35
2022-09-16T19:39:49.481Z,19.97
2022-09-16T19:42:56.302Z,19.48
2022-09-16T19:46:09.019Z,17.94
2022-09-16T19:49:23.369Z,16.97
2022-09-16T19:52:30.044Z,16.82
2022-09-16T19:55:35.562Z,16.05
2022-09-16T19:58:42.830Z,16.48
2022-09-16T20:01:50.603Z,17.72
2022-09-16T20:04:59.017Z,17.19
2022-09-16T20:08:05.371Z,16.12
2022-09-16T20:11:14.349Z,15.37
2022-09-16T20:14:24.089Z,14.88
2022-09-16T20:17:29.625Z,15.19
2022-09-16T20:20:37.845Z,14.87
2022-09-16T20:23:45.244Z,14.18
2022-09-16T20:26:51.595Z,14.58
2022-09-16T20:29:57.071Z,15.11
2022-09-16T20:33:02.549Z,15.13
2022-09-16T20:36:14.787Z,15.03
2022-09-16T20:39:20.640Z,14.71
2022-09-16T20:42:26.242Z,15.25
2022-09-16T20:45:31.892Z,15.12
2022-09-16T20:48:38.326Z,14.91
2022-09-16T20:51:47.409Z,13.98
2022-09-16T20:54:53.088Z,14.61
2022-09-16T20:57:58.608Z,14.21
2022-09-16T21:01:10.138Z,15.88
2022-09-16T21:04:20.169Z,23.74
2022-09-16T21:07:28.467Z,25.37
2022-09-16T21:10:36.231Z,22.68
2022-09-16T21:13:44.199Z,26.25
2022-09-16T21:16:50.337Z,27.58
2022-09-16T21:19:56.161Z,25.92
2022-09-16T21:23:14.498Z,24.78
2022-09-16T21:26:24.058Z,28.05
2022-09-16T21:29:31.318Z,23.76
2022-09-16T21:32:39.699Z,21.93
2022-09-16T21:35:54.874Z,22.59
2022-09-16T21:39:03.358Z,20.97
2022-09-16T21:42:09.411Z,21.31
2022-09-16T21:45:15.369Z,22.98
2022-09-16T21:48:25.247Z,19.75
2022-09-16T21:51:35.533Z,18.43
2022-09-16T21:54:46.979Z,17.70
2022-09-16T21:57:52.529Z,17.18
2022-09-16T22:01:11.438Z,15.40
2022-09-16T22:04:20.430Z,13.34
2022-09-16T22:07:25.946Z,11.69
2022-09-16T22:10:34.297Z,11.28
2022-09-16T22:13:43.426Z,10.88
2022-09-16T22:16:48.988Z,10.38
2022-09-16T22:19:54.533Z,10.26
2022-09-16T22:23:02.843Z,9.83
2022-09-16T22:26:14.694Z,9.34
2022-09-16T22:29:23.644Z,9.28
2022-09-16T22:32:30.438Z,9.65
2022-09-16T22:35:38.097Z,9.41
2022-09-16T22:38:49.209Z,10.07
2022-09-16T22:41:58.926Z,9.89
2022-09-16T22:45:05.181Z,10.14
2022-09-16T22:48:10.765Z,11.04
2022-09-16T22:51:19.970Z,11.44
2022-09-16T22:54:25.547Z,10.27
2022-09-16T22:57:39.410Z,10.37
2022-09-16T23:00:44.993Z,9.64
2022-09-16T23:03:56.647Z,9.27
2022-09-16T23:07:04.108Z,9.15
2022-09-16T23:10:11.338Z,9.20
2022-09-16T23:13:20.446Z,8.92
2022-09-16T23:16:30.312Z,9.55
2022-09-16T23:19:47.946Z,10.15
2022-09-16T23:22:53.440Z,11.68
2022-09-16T23:26:00.253Z,11.11
2022-09-16T23:29:12.439Z,10.74
2022-09-16T23:32:18.011Z,10.57
2022-09-16T23:35:23.816Z,10.67
2022-09-16T23:38:30.186Z,10.67
2022-09-16T23:41:37.002Z,10.73
2022-09-16T23:44:47.278Z,11.32
2022-09-16T23:48:01.092Z,11.56
2022-09-16T23:51:08.616Z,14.45
2022-09-16T23:54:14.149Z,14.18
2022-09-16T23:57:19.650Z,13.66
